sensor_id;sensor_type;location;lat;lon;timestamp;P1;durP1;ratioP1;P2;durP2;ratioP2
4504;SDS011;2265;48.794;9.520;2022-09-03T00:00:20;3.03;;;1.70;;
4504;SDS011;2265;48.794;9.520;2022-09-03T00:02:51;2.80;;;1.90;;
4504;SDS011;2265;48.794;9.520;2022-09-03T00:05:28;2.87;;;2.07;;
4504;SDS011;2265;48.794;9.520;2022-09-03T00:08:04;2.50;;;1.90;;
4504;SDS011;2265;48.794;9.520;2022-09-03T00:10:36;2.80;;;1.93;;
4504;SDS011;2265;48.794;9.520;2022-09-03T00:13:13;2.13;;;1.90;;
4504;SDS011;2265;48.794;9.520;2022-09-03T00:15:42;2.90;;;2.20;;
4504;SDS011;2265;48.794;9.520;2022-09-03T00:18:11;2.13;;;1.80;;
4504;SDS011;2265;48.794;9.520;2022-09-03T00:20:43;2.60;;;1.90;;
4504;SDS011;2265;48.794;9.520;2022-09-03T00:23:15;2.50;;;2.00;;
4504;SDS011;2265;48.794;9.520;2022-09-03T00:25:46;2.17;;;1.80;;
4504;SDS011;2265;48.794;9.520;2022-09-03T00:28:20;2.73;;;1.80;;
4504;SDS011;2265;48.794;9.520;2022-09-03T00:30:51;2.40;;;1.70;;
4504;SDS011;2265;48.794;9.520;2022-09-03T00:33:28;2.27;;;1.80;;
4504;SDS011;2265;48.794;9.520;2022-09-03T00:36:02;2.97;;;1.80;;
4504;SDS011;2265;48.794;9.520;2022-09-03T00:38:36;3.37;;;1.90;;
4504;SDS011;2265;48.794;9.520;2022-09-03T00:41:05;2.40;;;1.73;;
4504;SDS011;2265;48.794;9.520;2022-09-03T00:43:47;2.97;;;2.00;;
4504;SDS011;2265;48.794;9.520;2022-09-03T00:46:23;2.60;;;1.90;;
4504;SDS011;2265;48.794;9.520;2022-09-03T00:49:03;2.03;;;1.70;;
4504;SDS011;2265;48.794;9.520;2022-09-03T00:51:43;2.20;;;1.80;;
4504;SDS011;2265;48.794;9.520;2022-09-03T00:54:19;2.17;;;1.70;;
4504;SDS011;2265;48.794;9.520;2022-09-03T00:57:00;2.17;;;1.90;;
4504;SDS011;2265;48.794;9.520;2022-09-03T00:59:42;4.33;;;2.57;;
4504;SDS011;2265;48.794;9.520;2022-09-03T01:02:20;2.27;;;1.83;;
4504;SDS011;2265;48.794;9.520;2022-09-03T01:04:59;2.00;;;1.73;;
4504;SDS011;2265;48.794;9.520;2022-09-03T01:07:36;2.27;;;1.70;;
4504;SDS011;2265;48.794;9.520;2022-09-03T01:10:14;3.13;;;2.10;;
4504;SDS011;2265;48.794;9.520;2022-09-03T01:12:53;2.33;;;1.67;;
4504;SDS011;2265;48.794;9.520;2022-09-03T01:15:28;2.47;;;2.07;;
4504;SDS011;2265;48.794;9.520;2022-09-03T01:18:04;2.70;;;1.90;;
4504;SDS011;2265;48.794;9.520;2022-09-03T01:23:42;12.83;;;2.27;;
4504;SDS011;2265;48.794;9.520;2022-09-03T01:29:38;1.80;;;1.67;;
4504;SDS011;2265;48.794;9.520;2022-09-03T01:32:14;2.60;;;2.07;;
4504;SDS011;2265;48.794;9.520;2022-09-03T01:34:51;2.03;;;1.77;;
4504;SDS011;2265;48.794;9.520;2022-09-03T01:37:27;2.03;;;1.73;;
4504;SDS011;2265;48.794;9.520;2022-09-03T01:40:08;2.23;;;1.80;;
4504;SDS011;2265;48.794;9.520;2022-09-03T01:42:43;2.53;;;1.97;;
4504;SDS011;2265;48.794;9.520;2022-09-03T01:45:30;2.90;;;2.00;;
4504;SDS011;2265;48.794;9.520;2022-09-03T01:48:20;6.07;;;1.93;;
4504;SDS011;2265;48.794;9.520;2022-09-03T01:51:08;4.80;;;2.40;;
4504;SDS011;2265;48.794;9.520;2022-09-03T01:53:47;4.60;;;2.17;;
4504;SDS011;2265;48.794;9.520;2022-09-03T01:56:39;3.10;;;2.00;;
4504;SDS011;2265;48.794;9.520;2022-09-03T01:59:25;1.70;;;1.70;;
4504;SDS011;2265;48.794;9.520;2022-09-03T02:01:58;2.13;;;1.83;;
4504;SDS011;2265;48.794;9.520;2022-09-03T02:04:30;3.50;;;2.13;;
4504;SDS011;2265;48.794;9.520;2022-09-03T02:06:58;3.10;;;2.10;;
4504;SDS011;2265;48.794;9.520;2022-09-03T02:09:26;2.40;;;2.10;;
4504;SDS011;2265;48.794;9.520;2022-09-03T02:11:54;2.90;;;1.80;;
4504;SDS011;2265;48.794;9.520;2022-09-03T02:14:27;3.60;;;1.90;;
4504;SDS011;2265;48.794;9.520;2022-09-03T02:16:55;2.53;;;2.07;;
4504;SDS011;2265;48.794;9.520;2022-09-03T02:19:26;3.23;;;2.30;;
4504;SDS011;2265;48.794;9.520;2022-09-03T02:21:55;2.73;;;2.00;;
4504;SDS011;2265;48.794;9.520;2022-09-03T02:24:23;2.47;;;2.00;;
4504;SDS011;2265;48.794;9.520;2022-09-03T02:26:51;2.20;;;1.90;;
4504;SDS011;2265;48.794;9.520;2022-09-03T02:29:19;2.13;;;1.97;;
4504;SDS011;2265;48.794;9.520;2022-09-03T02:31:48;2.63;;;1.73;;
4504;SDS011;2265;48.794;9.520;2022-09-03T02:34:17;2.17;;;1.83;;
4504;SDS011;2265;48.794;9.520;2022-09-03T02:36:45;4.50;;;2.07;;
4504;SDS011;2265;48.794;9.520;2022-09-03T02:39:13;2.60;;;1.80;;
4504;SDS011;2265;48.794;9.520;2022-09-03T02:41:41;2.37;;;1.80;;
4504;SDS011;2265;48.794;9.520;2022-09-03T02:44:10;1.90;;;1.70;;
4504;SDS011;2265;48.794;9.520;2022-09-03T02:46:42;3.23;;;2.10;;
4504;SDS011;2265;48.794;9.520;2022-09-03T02:49:12;2.90;;;2.10;;
4504;SDS011;2265;48.794;9.520;2022-09-03T02:51:42;2.20;;;1.63;;
4504;SDS011;2265;48.794;9.520;2022-09-03T02:54:13;1.90;;;1.70;;
4504;SDS011;2265;48.794;9.520;2022-09-03T02:56:40;2.90;;;1.93;;
4504;SDS011;2265;48.794;9.520;2022-09-03T02:59:08;2.90;;;2.17;;
4504;SDS011;2265;48.794;9.520;2022-09-03T03:01:35;4.53;;;2.00;;
4504;SDS011;2265;48.794;9.520;2022-09-03T03:04:02;2.30;;;1.73;;
4504;SDS011;2265;48.794;9.520;2022-09-03T03:06:29;1.77;;;1.70;;
4504;SDS011;2265;48.794;9.520;2022-09-03T03:08:58;2.70;;;2.20;;
4504;SDS011;2265;48.794;9.520;2022-09-03T03:11:28;2.20;;;1.77;;
4504;SDS011;2265;48.794;9.520;2022-09-03T03:13:56;2.70;;;1.90;;
4504;SDS011;2265;48.794;9.520;2022-09-03T03:16:23;3.77;;;1.80;;
4504;SDS011;2265;48.794;9.520;2022-09-03T03:18:51;1.90;;;1.60;;
4504;SDS011;2265;48.794;9.520;2022-09-03T03:21:18;2.73;;;1.90;;
4504;SDS011;2265;48.794;9.520;2022-09-03T03:23:45;2.00;;;1.67;;
4504;SDS011;2265;48.794;9.520;2022-09-03T03:26:14;4.10;;;1.90;;
4504;SDS011;2265;48.794;9.520;2022-09-03T03:28:43;2.60;;;2.00;;
4504;SDS011;2265;48.794;9.520;2022-09-03T03:31:14;2.27;;;1.73;;
4504;SDS011;2265;48.794;9.520;2022-09-03T03:33:43;2.60;;;1.93;;
4504;SDS011;2265;48.794;9.520;2022-09-03T03:36:11;2.90;;;1.83;;
4504;SDS011;2265;48.794;9.520;2022-09-03T03:38:41;1.70;;;1.60;;
4504;SDS011;2265;48.794;9.520;2022-09-03T03:41:10;2.47;;;1.93;;
4504;SDS011;2265;48.794;9.520;2022-09-03T03:43:40;2.50;;;1.80;;
4504;SDS011;2265;48.794;9.520;2022-09-03T03:46:08;2.30;;;1.60;;
4504;SDS011;2265;48.794;9.520;2022-09-03T03:48:35;2.37;;;2.03;;
4504;SDS011;2265;48.794;9.520;2022-09-03T03:51:06;3.77;;;1.97;;
4504;SDS011;2265;48.794;9.520;2022-09-03T03:53:36;2.67;;;1.80;;
4504;SDS011;2265;48.794;9.520;2022-09-03T03:56:04;2.80;;;2.10;;
4504;SDS011;2265;48.794;9.520;2022-09-03T03:58:34;2.60;;;1.87;;
4504;SDS011;2265;48.794;9.520;2022-09-03T04:01:06;2.67;;;2.10;;
4504;SDS011;2265;48.794;9.520;2022-09-03T04:03:35;2.23;;;1.90;;
4504;SDS011;2265;48.794;9.520;2022-09-03T04:06:04;3.13;;;2.13;;
4504;SDS011;2265;48.794;9.520;2022-09-03T04:08:33;3.67;;;2.00;;
4504;SDS011;2265;48.794;9.520;2022-09-03T04:11:01;2.97;;;2.10;;
4504;SDS011;2265;48.794;9.520;2022-09-03T04:13:30;2.87;;;1.80;;
4504;SDS011;2265;48.794;9.520;2022-09-03T04:16:01;4.20;;;2.50;;
4504;SDS011;2265;48.794;9.520;2022-09-03T04:18:33;1.77;;;1.67;;
4504;SDS011;2265;48.794;9.520;2022-09-03T04:21:01;2.50;;;2.00;;
4504;SDS011;2265;48.794;9.520;2022-09-03T04:23:30;3.50;;;2.20;;
4504;SDS011;2265;48.794;9.520;2022-09-03T04:25:57;3.20;;;1.90;;
4504;SDS011;2265;48.794;9.520;2022-09-03T04:28:26;3.10;;;2.20;;
4504;SDS011;2265;48.794;9.520;2022-09-03T04:30:58;2.83;;;2.07;;
4504;SDS011;2265;48.794;9.520;2022-09-03T04:33:27;2.73;;;2.00;;
4504;SDS011;2265;48.794;9.520;2022-09-03T04:36:02;1.80;;;1.70;;
4504;SDS011;2265;48.794;9.520;2022-09-03T04:38:31;3.50;;;2.10;;
4504;SDS011;2265;48.794;9.520;2022-09-03T04:41:00;3.60;;;2.20;;
4504;SDS011;2265;48.794;9.520;2022-09-03T04:43:28;2.80;;;1.80;;
4504;SDS011;2265;48.794;9.520;2022-09-03T04:45:56;4.23;;;2.20;;
4504;SDS011;2265;48.794;9.520;2022-09-03T04:48:24;3.13;;;2.10;;
4504;SDS011;2265;48.794;9.520;2022-09-03T04:50:51;2.73;;;2.00;;
4504;SDS011;2265;48.794;9.520;2022-09-03T04:53:21;2.43;;;1.73;;
4504;SDS011;2265;48.794;9.520;2022-09-03T04:55:48;2.63;;;1.80;;
4504;SDS011;2265;48.794;9.520;2022-09-03T04:58:16;2.93;;;2.07;;
4504;SDS011;2265;48.794;9.520;2022-09-03T05:00:43;3.77;;;2.20;;
4504;SDS011;2265;48.794;9.520;2022-09-03T05:03:10;2.60;;;1.70;;
4504;SDS011;2265;48.794;9.520;2022-09-03T05:05:37;2.80;;;1.73;;
4504;SDS011;2265;48.794;9.520;2022-09-03T05:08:04;1.97;;;1.83;;
4504;SDS011;2265;48.794;9.520;2022-09-03T05:10:33;3.30;;;2.00;;
4504;SDS011;2265;48.794;9.520;2022-09-03T05:13:00;4.13;;;2.13;;
4504;SDS011;2265;48.794;9.520;2022-09-03T05:15:31;3.00;;;1.87;;
4504;SDS011;2265;48.794;9.520;2022-09-03T05:17:58;2.27;;;1.70;;
4504;SDS011;2265;48.794;9.520;2022-09-03T05:20:26;3.00;;;2.30;;
4504;SDS011;2265;48.794;9.520;2022-09-03T05:22:54;2.73;;;2.10;;
4504;SDS011;2265;48.794;9.520;2022-09-03T05:25:22;2.23;;;1.80;;
4504;SDS011;2265;48.794;9.520;2022-09-03T05:27:51;2.13;;;1.67;;
4504;SDS011;2265;48.794;9.520;2022-09-03T05:30:19;3.27;;;2.20;;
4504;SDS011;2265;48.794;9.520;2022-09-03T05:32:47;2.43;;;1.90;;
4504;SDS011;2265;48.794;9.520;2022-09-03T05:35:14;2.27;;;1.93;;
4504;SDS011;2265;48.794;9.520;2022-09-03T05:37:42;6.40;;;2.20;;
4504;SDS011;2265;48.794;9.520;2022-09-03T05:40:09;2.30;;;2.00;;
4504;SDS011;2265;48.794;9.520;2022-09-03T05:42:36;3.27;;;2.07;;
4504;SDS011;2265;48.794;9.520;2022-09-03T05:45:06;2.63;;;1.93;;
4504;SDS011;2265;48.794;9.520;2022-09-03T05:47:35;2.63;;;1.87;;
4504;SDS011;2265;48.794;9.520;2022-09-03T05:50:04;3.00;;;1.90;;
4504;SDS011;2265;48.794;9.520;2022-09-03T05:52:33;6.10;;;1.90;;
4504;SDS011;2265;48.794;9.520;2022-09-03T05:55:00;2.57;;;1.90;;
4504;SDS011;2265;48.794;9.520;2022-09-03T05:57:28;2.83;;;2.23;;
4504;SDS011;2265;48.794;9.520;2022-09-03T06:00:17;2.10;;;1.73;;
4504;SDS011;2265;48.794;9.520;2022-09-03T06:02:48;4.07;;;1.90;;
4504;SDS011;2265;48.794;9.520;2022-09-03T06:05:16;3.43;;;2.00;;
4504;SDS011;2265;48.794;9.520;2022-09-03T06:07:43;3.00;;;2.20;;
4504;SDS011;2265;48.794;9.520;2022-09-03T06:10:13;8.30;;;3.10;;
4504;SDS011;2265;48.794;9.520;2022-09-03T06:12:42;6.97;;;3.00;;
4504;SDS011;2265;48.794;9.520;2022-09-03T06:15:13;3.00;;;2.10;;
4504;SDS011;2265;48.794;9.520;2022-09-03T06:17:42;3.10;;;2.27;;
4504;SDS011;2265;48.794;9.520;2022-09-03T06:20:10;3.00;;;2.00;;
4504;SDS011;2265;48.794;9.520;2022-09-03T06:22:40;2.93;;;2.10;;
4504;SDS011;2265;48.794;9.520;2022-09-03T06:25:07;2.43;;;1.90;;
4504;SDS011;2265;48.794;9.520;2022-09-03T06:27:35;2.50;;;1.80;;
4504;SDS011;2265;48.794;9.520;2022-09-03T06:30:03;2.70;;;2.07;;
4504;SDS011;2265;48.794;9.520;2022-09-03T06:32:32;2.50;;;1.77;;
4504;SDS011;2265;48.794;9.520;2022-09-03T06:35:01;2.33;;;1.97;;
4504;SDS011;2265;48.794;9.520;2022-09-03T06:37:28;4.03;;;2.30;;
4504;SDS011;2265;48.794;9.520;2022-09-03T06:39:56;2.47;;;2.00;;
4504;SDS011;2265;48.794;9.520;2022-09-03T06:42:23;3.00;;;2.37;;
4504;SDS011;2265;48.794;9.520;2022-09-03T06:44:50;3.40;;;2.30;;
4504;SDS011;2265;48.794;9.520;2022-09-03T06:47:19;2.40;;;2.10;;
4504;SDS011;2265;48.794;9.520;2022-09-03T06:49:46;4.00;;;2.10;;
4504;SDS011;2265;48.794;9.520;2022-09-03T06:52:14;4.50;;;2.00;;
4504;SDS011;2265;48.794;9.520;2022-09-03T06:54:41;3.97;;;2.30;;
4504;SDS011;2265;48.794;9.520;2022-09-03T06:57:09;2.23;;;1.70;;
4504;SDS011;2265;48.794;9.520;2022-09-03T06:59:36;2.40;;;2.00;;
4504;SDS011;2265;48.794;9.520;2022-09-03T07:02:04;2.80;;;2.00;;
4504;SDS011;2265;48.794;9.520;2022-09-03T07:04:31;3.10;;;2.33;;
4504;SDS011;2265;48.794;9.520;2022-09-03T07:06:58;2.33;;;1.80;;
4504;SDS011;2265;48.794;9.520;2022-09-03T07:09:27;3.53;;;2.10;;
4504;SDS011;2265;48.794;9.520;2022-09-03T07:11:56;3.40;;;2.23;;
4504;SDS011;2265;48.794;9.520;2022-09-03T07:14:23;3.60;;;2.10;;
4504;SDS011;2265;48.794;9.520;2022-09-03T07:16:50;3.10;;;2.23;;
4504;SDS011;2265;48.794;9.520;2022-09-03T07:19:17;3.20;;;2.30;;
4504;SDS011;2265;48.794;9.520;2022-09-03T07:21:45;2.50;;;1.90;;
4504;SDS011;2265;48.794;9.520;2022-09-03T07:24:12;3.33;;;2.07;;
4504;SDS011;2265;48.794;9.520;2022-09-03T07:26:43;2.43;;;2.17;;
4504;SDS011;2265;48.794;9.520;2022-09-03T07:29:22;5.93;;;1.97;;
4504;SDS011;2265;48.794;9.520;2022-09-03T07:31:49;2.90;;;2.00;;
4504;SDS011;2265;48.794;9.520;2022-09-03T07:34:17;3.23;;;2.30;;
4504;SDS011;2265;48.794;9.520;2022-09-03T07:36:44;2.20;;;1.83;;
4504;SDS011;2265;48.794;9.520;2022-09-03T07:39:15;3.73;;;2.10;;
4504;SDS011;2265;48.794;9.520;2022-09-03T07:41:44;3.60;;;2.27;;
4504;SDS011;2265;48.794;9.520;2022-09-03T07:44:12;2.90;;;2.13;;
4504;SDS011;2265;48.794;9.520;2022-09-03T07:46:40;2.90;;;1.93;;
4504;SDS011;2265;48.794;9.520;2022-09-03T07:49:09;4.00;;;2.43;;
4504;SDS011;2265;48.794;9.520;2022-09-03T07:51:37;3.40;;;2.20;;
4504;SDS011;2265;48.794;9.520;2022-09-03T07:54:05;3.80;;;2.23;;
4504;SDS011;2265;48.794;9.520;2022-09-03T07:56:35;3.63;;;2.03;;
4504;SDS011;2265;48.794;9.520;2022-09-03T07:59:04;4.20;;;2.67;;
4504;SDS011;2265;48.794;9.520;2022-09-03T08:01:33;3.03;;;2.00;;
4504;SDS011;2265;48.794;9.520;2022-09-03T08:04:01;2.57;;;1.87;;
4504;SDS011;2265;48.794;9.520;2022-09-03T08:06:31;2.90;;;2.20;;
4504;SDS011;2265;48.794;9.520;2022-09-03T08:09:00;3.60;;;2.23;;
4504;SDS011;2265;48.794;9.520;2022-09-03T08:11:29;4.60;;;2.17;;
4504;SDS011;2265;48.794;9.520;2022-09-03T08:13:58;3.73;;;2.43;;
4504;SDS011;2265;48.794;9.520;2022-09-03T08:16:28;3.77;;;2.57;;
4504;SDS011;2265;48.794;9.520;2022-09-03T08:18:56;3.10;;;2.33;;
4504;SDS011;2265;48.794;9.520;2022-09-03T08:21:24;2.73;;;2.10;;
4504;SDS011;2265;48.794;9.520;2022-09-03T08:23:56;2.67;;;1.90;;
4504;SDS011;2265;48.794;9.520;2022-09-03T08:26:27;2.43;;;2.30;;
4504;SDS011;2265;48.794;9.520;2022-09-03T08:28:55;2.60;;;2.10;;
4504;SDS011;2265;48.794;9.520;2022-09-03T08:31:22;3.83;;;2.30;;
4504;SDS011;2265;48.794;9.520;2022-09-03T08:33:54;2.50;;;2.13;;
4504;SDS011;2265;48.794;9.520;2022-09-03T08:36:25;2.53;;;2.00;;
4504;SDS011;2265;48.794;9.520;2022-09-03T08:38:54;3.20;;;2.10;;
4504;SDS011;2265;48.794;9.520;2022-09-03T08:41:23;3.70;;;2.30;;
4504;SDS011;2265;48.794;9.520;2022-09-03T08:44:03;4.97;;;2.73;;
4504;SDS011;2265;48.794;9.520;2022-09-03T08:46:39;3.47;;;2.30;;
4504;SDS011;2265;48.794;9.520;2022-09-03T08:49:14;3.07;;;2.13;;
4504;SDS011;2265;48.794;9.520;2022-09-03T08:51:46;3.50;;;2.43;;
4504;SDS011;2265;48.794;9.520;2022-09-03T08:54:14;3.13;;;2.00;;
4504;SDS011;2265;48.794;9.520;2022-09-03T08:56:43;3.97;;;2.33;;
4504;SDS011;2265;48.794;9.520;2022-09-03T08:59:12;4.07;;;2.20;;
4504;SDS011;2265;48.794;9.520;2022-09-03T09:01:42;3.30;;;2.40;;
4504;SDS011;2265;48.794;9.520;2022-09-03T09:04:36;3.17;;;2.33;;
4504;SDS011;2265;48.794;9.520;2022-09-03T09:07:15;4.07;;;2.67;;
4504;SDS011;2265;48.794;9.520;2022-09-03T09:09:49;3.90;;;2.70;;
4504;SDS011;2265;48.794;9.520;2022-09-03T09:12:28;3.87;;;2.30;;
4504;SDS011;2265;48.794;9.520;2022-09-03T09:15:09;3.80;;;2.50;;
4504;SDS011;2265;48.794;9.520;2022-09-03T09:17:48;3.07;;;2.20;;
4504;SDS011;2265;48.794;9.520;2022-09-03T09:20:25;2.60;;;2.13;;
4504;SDS011;2265;48.794;9.520;2022-09-03T09:23:00;5.00;;;2.80;;
4504;SDS011;2265;48.794;9.520;2022-09-03T09:25:31;3.23;;;2.60;;
4504;SDS011;2265;48.794;9.520;2022-09-03T09:28:05;2.57;;;2.07;;
4504;SDS011;2265;48.794;9.520;2022-09-03T09:30:42;3.37;;;2.60;;
4504;SDS011;2265;48.794;9.520;2022-09-03T09:33:12;2.37;;;2.00;;
4504;SDS011;2265;48.794;9.520;2022-09-03T09:35:42;2.40;;;2.20;;
4504;SDS011;2265;48.794;9.520;2022-09-03T09:38:11;3.63;;;2.30;;
4504;SDS011;2265;48.794;9.520;2022-09-03T09:40:39;3.97;;;2.20;;
4504;SDS011;2265;48.794;9.520;2022-09-03T09:43:09;3.23;;;2.20;;
4504;SDS011;2265;48.794;9.520;2022-09-03T09:45:38;3.67;;;2.70;;
4504;SDS011;2265;48.794;9.520;2022-09-03T09:48:16;3.30;;;2.30;;
4504;SDS011;2265;48.794;9.520;2022-09-03T09:50:49;2.73;;;2.47;;
4504;SDS011;2265;48.794;9.520;2022-09-03T09:53:28;4.83;;;2.30;;
4504;SDS011;2265;48.794;9.520;2022-09-03T09:55:59;2.73;;;2.23;;
4504;SDS011;2265;48.794;9.520;2022-09-03T09:58:27;5.00;;;2.60;;
4504;SDS011;2265;48.794;9.520;2022-09-03T10:00:57;2.67;;;2.40;;
4504;SDS011;2265;48.794;9.520;2022-09-03T10:03:29;2.57;;;2.10;;
4504;SDS011;2265;48.794;9.520;2022-09-03T10:06:05;3.17;;;2.33;;
4504;SDS011;2265;48.794;9.520;2022-09-03T10:08:52;4.90;;;2.47;;
4504;SDS011;2265;48.794;9.520;2022-09-03T10:11:30;3.50;;;2.40;;
4504;SDS011;2265;48.794;9.520;2022-09-03T10:14:05;4.20;;;2.80;;
4504;SDS011;2265;48.794;9.520;2022-09-03T10:16:39;3.50;;;2.23;;
4504;SDS011;2265;48.794;9.520;2022-09-03T10:19:14;3.53;;;2.70;;
4504;SDS011;2265;48.794;9.520;2022-09-03T10:21:46;3.23;;;2.13;;
4504;SDS011;2265;48.794;9.520;2022-09-03T10:24:29;4.30;;;2.77;;
4504;SDS011;2265;48.794;9.520;2022-09-03T10:27:05;3.23;;;2.50;;
4504;SDS011;2265;48.794;9.520;2022-09-03T10:29:37;3.00;;;2.20;;
4504;SDS011;2265;48.794;9.520;2022-09-03T10:32:16;3.40;;;2.17;;
4504;SDS011;2265;48.794;9.520;2022-09-03T10:34:51;2.97;;;2.10;;
4504;SDS011;2265;48.794;9.520;2022-09-03T10:37:32;3.63;;;2.50;;
4504;SDS011;2265;48.794;9.520;2022-09-03T10:40:09;3.13;;;2.40;;
4504;SDS011;2265;48.794;9.520;2022-09-03T10:42:58;2.43;;;2.10;;
4504;SDS011;2265;48.794;9.520;2022-09-03T10:45:35;3.17;;;2.20;;
4504;SDS011;2265;48.794;9.520;2022-09-03T10:48:12;2.97;;;2.43;;
4504;SDS011;2265;48.794;9.520;2022-09-03T10:50:54;4.47;;;2.87;;
4504;SDS011;2265;48.794;9.520;2022-09-03T10:53:33;3.40;;;2.40;;
4504;SDS011;2265;48.794;9.520;2022-09-03T10:56:09;3.57;;;2.00;;
4504;SDS011;2265;48.794;9.520;2022-09-03T11:01:36;2.70;;;2.20;;
4504;SDS011;2265;48.794;9.520;2022-09-03T11:04:17;4.20;;;2.53;;
4504;SDS011;2265;48.794;9.520;2022-09-03T11:06:51;4.00;;;2.60;;
4504;SDS011;2265;48.794;9.520;2022-09-03T11:09:27;3.40;;;2.40;;
4504;SDS011;2265;48.794;9.520;2022-09-03T11:12:00;3.43;;;2.70;;
4504;SDS011;2265;48.794;9.520;2022-09-03T11:14:33;3.77;;;2.50;;
4504;SDS011;2265;48.794;9.520;2022-09-03T11:17:06;3.80;;;2.47;;
4504;SDS011;2265;48.794;9.520;2022-09-03T11:19:37;3.13;;;2.10;;
4504;SDS011;2265;48.794;9.520;2022-09-03T11:22:12;4.27;;;2.30;;
4504;SDS011;2265;48.794;9.520;2022-09-03T11:24:45;4.33;;;2.60;;
4504;SDS011;2265;48.794;9.520;2022-09-03T11:27:19;4.33;;;2.33;;
4504;SDS011;2265;48.794;9.520;2022-09-03T11:29:57;5.20;;;2.50;;
4504;SDS011;2265;48.794;9.520;2022-09-03T11:32:29;2.93;;;2.27;;
4504;SDS011;2265;48.794;9.520;2022-09-03T11:35:12;4.00;;;2.33;;
4504;SDS011;2265;48.794;9.520;2022-09-03T11:37:45;3.63;;;2.30;;
4504;SDS011;2265;48.794;9.520;2022-09-03T11:40:19;3.37;;;2.20;;
4504;SDS011;2265;48.794;9.520;2022-09-03T11:43:03;3.80;;;2.83;;
4504;SDS011;2265;48.794;9.520;2022-09-03T11:45:33;3.73;;;2.60;;
4504;SDS011;2265;48.794;9.520;2022-09-03T11:48:15;2.57;;;2.20;;
4504;SDS011;2265;48.794;9.520;2022-09-03T11:50:52;3.90;;;2.70;;
4504;SDS011;2265;48.794;9.520;2022-09-03T11:53:22;4.73;;;2.57;;
4504;SDS011;2265;48.794;9.520;2022-09-03T11:55:54;4.07;;;2.73;;
4504;SDS011;2265;48.794;9.520;2022-09-03T11:58:25;4.27;;;2.60;;
4504;SDS011;2265;48.794;9.520;2022-09-03T12:00:57;3.63;;;2.40;;
4504;SDS011;2265;48.794;9.520;2022-09-03T12:03:27;5.57;;;2.50;;
4504;SDS011;2265;48.794;9.520;2022-09-03T12:11:10;3.40;;;2.37;;
4504;SDS011;2265;48.794;9.520;2022-09-03T12:13:56;3.60;;;2.53;;
4504;SDS011;2265;48.794;9.520;2022-09-03T12:16:40;2.63;;;2.20;;
4504;SDS011;2265;48.794;9.520;2022-09-03T12:19:27;4.00;;;2.50;;
4504;SDS011;2265;48.794;9.520;2022-09-03T12:22:03;3.83;;;2.60;;
4504;SDS011;2265;48.794;9.520;2022-09-03T12:24:30;4.00;;;2.83;;
4504;SDS011;2265;48.794;9.520;2022-09-03T12:27:01;3.53;;;2.30;;
4504;SDS011;2265;48.794;9.520;2022-09-03T12:29:36;2.80;;;2.13;;
4504;SDS011;2265;48.794;9.520;2022-09-03T12:32:06;3.90;;;2.50;;
4504;SDS011;2265;48.794;9.520;2022-09-03T12:34:36;2.50;;;1.90;;
4504;SDS011;2265;48.794;9.520;2022-09-03T12:37:13;4.10;;;2.50;;
4504;SDS011;2265;48.794;9.520;2022-09-03T12:39:49;3.23;;;2.33;;
4504;SDS011;2265;48.794;9.520;2022-09-03T12:42:19;3.47;;;2.37;;
4504;SDS011;2265;48.794;9.520;2022-09-03T12:44:50;3.03;;;2.17;;
4504;SDS011;2265;48.794;9.520;2022-09-03T12:47:18;2.20;;;1.80;;
4504;SDS011;2265;48.794;9.520;2022-09-03T12:49:46;3.60;;;1.90;;
4504;SDS011;2265;48.794;9.520;2022-09-03T12:52:16;2.53;;;1.63;;
4504;SDS011;2265;48.794;9.520;2022-09-03T12:54:47;1.87;;;1.70;;
4504;SDS011;2265;48.794;9.520;2022-09-03T12:57:21;1.47;;;1.30;;
4504;SDS011;2265;48.794;9.520;2022-09-03T12:59:53;3.00;;;1.40;;
4504;SDS011;2265;48.794;9.520;2022-09-03T13:02:25;3.00;;;1.50;;
4504;SDS011;2265;48.794;9.520;2022-09-03T13:05:01;1.70;;;1.50;;
4504;SDS011;2265;48.794;9.520;2022-09-03T13:07:30;1.60;;;1.30;;
4504;SDS011;2265;48.794;9.520;2022-09-03T13:10:03;1.83;;;1.40;;
4504;SDS011;2265;48.794;9.520;2022-09-03T13:12:41;3.10;;;1.50;;
4504;SDS011;2265;48.794;9.520;2022-09-03T13:15:16;1.40;;;1.30;;
4504;SDS011;2265;48.794;9.520;2022-09-03T13:18:02;2.50;;;1.43;;
4504;SDS011;2265;48.794;9.520;2022-09-03T13:20:38;1.77;;;1.50;;
4504;SDS011;2265;48.794;9.520;2022-09-03T13:23:21;2.23;;;1.50;;
4504;SDS011;2265;48.794;9.520;2022-09-03T13:26:17;1.30;;;1.17;;
4504;SDS011;2265;48.794;9.520;2022-09-03T13:28:58;2.33;;;1.60;;
4504;SDS011;2265;48.794;9.520;2022-09-03T13:31:42;1.80;;;1.37;;
4504;SDS011;2265;48.794;9.520;2022-09-03T13:34:15;1.80;;;1.50;;
4504;SDS011;2265;48.794;9.520;2022-09-03T13:36:48;2.40;;;1.30;;
4504;SDS011;2265;48.794;9.520;2022-09-03T13:39:24;1.30;;;1.20;;
4504;SDS011;2265;48.794;9.520;2022-09-03T13:41:54;1.70;;;1.20;;
4504;SDS011;2265;48.794;9.520;2022-09-03T13:44:34;1.50;;;1.30;;
4504;SDS011;2265;48.794;9.520;2022-09-03T13:47:08;1.50;;;1.30;;
4504;SDS011;2265;48.794;9.520;2022-09-03T13:49:49;1.77;;;1.33;;
4504;SDS011;2265;48.794;9.520;2022-09-03T13:52:39;1.40;;;1.23;;
4504;SDS011;2265;48.794;9.520;2022-09-03T13:55:13;1.50;;;1.30;;
4504;SDS011;2265;48.794;9.520;2022-09-03T13:57:48;1.60;;;1.30;;
4504;SDS011;2265;48.794;9.520;2022-09-03T14:00:23;1.60;;;1.20;;
4504;SDS011;2265;48.794;9.520;2022-09-03T14:02:55;1.53;;;1.10;;
4504;SDS011;2265;48.794;9.520;2022-09-03T14:05:33;1.20;;;1.10;;
4504;SDS011;2265;48.794;9.520;2022-09-03T14:08:22;1.30;;;1.10;;
4504;SDS011;2265;48.794;9.520;2022-09-03T14:10:59;1.60;;;1.30;;
4504;SDS011;2265;48.794;9.520;2022-09-03T14:13:41;1.67;;;1.23;;
4504;SDS011;2265;48.794;9.520;2022-09-03T14:16:24;2.03;;;1.50;;
4504;SDS011;2265;48.794;9.520;2022-09-03T14:19:02;1.53;;;1.20;;
4504;SDS011;2265;48.794;9.520;2022-09-03T14:21:39;1.40;;;1.30;;
4504;SDS011;2265;48.794;9.520;2022-09-03T14:24:11;1.20;;;1.10;;
4504;SDS011;2265;48.794;9.520;2022-09-03T14:26:49;2.00;;;1.30;;
4504;SDS011;2265;48.794;9.520;2022-09-03T14:29:19;2.23;;;1.47;;
4504;SDS011;2265;48.794;9.520;2022-09-03T14:32:03;1.53;;;1.37;;
4504;SDS011;2265;48.794;9.520;2022-09-03T14:34:51;1.53;;;1.30;;
4504;SDS011;2265;48.794;9.520;2022-09-03T14:37:45;1.70;;;1.40;;
4504;SDS011;2265;48.794;9.520;2022-09-03T14:40:25;1.67;;;1.27;;
4504;SDS011;2265;48.794;9.520;2022-09-03T14:43:02;1.40;;;1.33;;
4504;SDS011;2265;48.794;9.520;2022-09-03T14:45:53;1.77;;;1.40;;
4504;SDS011;2265;48.794;9.520;2022-09-03T14:48:34;1.37;;;1.20;;
4504;SDS011;2265;48.794;9.520;2022-09-03T14:51:22;1.40;;;1.20;;
4504;SDS011;2265;48.794;9.520;2022-09-03T14:54:10;1.40;;;1.30;;
4504;SDS011;2265;48.794;9.520;2022-09-03T14:57:06;1.50;;;1.23;;
4504;SDS011;2265;48.794;9.520;2022-09-03T15:00:00;2.50;;;1.50;;
4504;SDS011;2265;48.794;9.520;2022-09-03T15:02:47;1.30;;;1.20;;
4504;SDS011;2265;48.794;9.520;2022-09-03T15:05:56;1.47;;;1.40;;
4504;SDS011;2265;48.794;9.520;2022-09-03T15:08:35;1.40;;;1.20;;
4504;SDS011;2265;48.794;9.520;2022-09-03T15:11:14;1.60;;;1.23;;
4504;SDS011;2265;48.794;9.520;2022-09-03T15:13:46;1.60;;;1.37;;
4504;SDS011;2265;48.794;9.520;2022-09-03T15:16:30;1.43;;;1.27;;
4504;SDS011;2265;48.794;9.520;2022-09-03T15:19:12;1.57;;;1.40;;
4504;SDS011;2265;48.794;9.520;2022-09-03T15:22:00;1.50;;;1.40;;
4504;SDS011;2265;48.794;9.520;2022-09-03T15:24:40;1.93;;;1.37;;
4504;SDS011;2265;48.794;9.520;2022-09-03T15:27:17;1.60;;;1.30;;
4504;SDS011;2265;48.794;9.520;2022-09-03T15:30:04;1.67;;;1.50;;
4504;SDS011;2265;48.794;9.520;2022-09-03T15:32:41;2.20;;;1.53;;
4504;SDS011;2265;48.794;9.520;2022-09-03T15:35:18;1.60;;;1.23;;
4504;SDS011;2265;48.794;9.520;2022-09-03T15:38:03;2.00;;;1.60;;
4504;SDS011;2265;48.794;9.520;2022-09-03T15:40:35;2.23;;;1.40;;
4504;SDS011;2265;48.794;9.520;2022-09-03T15:45:48;1.60;;;1.30;;
4504;SDS011;2265;48.794;9.520;2022-09-03T15:48:25;1.60;;;1.30;;
4504;SDS011;2265;48.794;9.520;2022-09-03T15:51:15;1.60;;;1.40;;
4504;SDS011;2265;48.794;9.520;2022-09-03T15:53:51;1.70;;;1.37;;
4504;SDS011;2265;48.794;9.520;2022-09-03T15:56:23;1.63;;;1.37;;
4504;SDS011;2265;48.794;9.520;2022-09-03T15:58:56;1.93;;;1.30;;
4504;SDS011;2265;48.794;9.520;2022-09-03T16:01:29;1.43;;;1.30;;
4504;SDS011;2265;48.794;9.520;2022-09-03T16:04:07;1.93;;;1.60;;
4504;SDS011;2265;48.794;9.520;2022-09-03T16:06:54;1.50;;;1.37;;
4504;SDS011;2265;48.794;9.520;2022-09-03T16:09:29;1.50;;;1.40;;